Time;durP1;ratioP1;P1;durP2;ratioP2;P2;SDS_P1;SDS_P2;PMS_P1;PMS_P2;Temp;Humidity;BMP_temperature;BMP_pressure;BME280_temperature;BME280_humidity;BME280_pressure;Samples;Min_cycle;Max_cycle;Signal;HPM_P1;HPM_P2
2023/03/11 00:05:00;;;;;;;6.10;1.80;;;;;;;1.27;62.63;98829.50;10427128;28;20056;-64
2023/03/11 00:10:03;;;;;;;3.65;1.95;;;;;;;1.15;63.00;98825.69;10423797;28;20044;-64
2023/03/11 00:15:05;;;;;;;5.78;1.77;;;;;;;1.10;63.07;98840.44;10424498;28;20528;-64
2023/03/11 00:20:13;;;;;;;6.80;2.15;;;;;;;1.23;62.91;98843.41;10410996;28;20055;-63
2023/03/11 00:25:14;;;;;;;3.92;1.75;;;;;;;1.18;63.03;98846.13;10426455;28;20049;-64
2023/03/11 00:30:18;;;;;;;5.78;1.90;;;;;;;1.36;63.13;98848.00;10423193;28;20048;-64
2023/03/11 00:35:29;;;;;;;4.72;2.10;;;;;;;1.43;63.03;98851.16;10425606;28;20061;-64
2023/03/11 00:40:34;;;;;;;9.73;2.30;;;;;;;1.35;62.56;98864.34;10425811;28;20095;-64
2023/03/11 00:45:36;;;;;;;5.75;1.80;;;;;;;1.41;62.91;98857.28;10422929;28;20049;-64
2023/03/11 00:50:39;;;;;;;5.28;1.80;;;;;;;1.48;62.52;98863.88;10433125;28;20371;-64
2023/03/11 00:55:40;;;;;;;6.45;1.80;;;;;;;1.40;62.48;98879.59;10449315;28;20477;-64
2023/03/11 01:00:42;;;;;;;6.60;1.90;;;;;;;1.38;62.21;98883.16;10431758;28;20580;-64
2023/03/11 01:05:44;;;;;;;9.50;2.35;;;;;;;1.45;62.14;98892.31;10431967;28;20082;-64
2023/03/11 01:10:45;;;;;;;8.77;1.85;;;;;;;1.33;62.40;98886.75;10434758;28;20376;-64
2023/03/11 01:15:47;;;;;;;5.57;1.92;;;;;;;1.23;62.11;98879.44;10431298;28;20049;-64
2023/03/11 01:20:49;;;;;;;7.03;1.88;;;;;;;1.31;61.97;98877.41;10434017;28;20484;-64
2023/03/11 01:25:51;;;;;;;8.90;2.22;;;;;;;1.29;61.57;98887.78;10433013;28;20051;-64
2023/03/11 01:30:53;;;;;;;7.60;2.22;;;;;;;1.56;61.10;98888.44;10429840;28;20048;-64
2023/03/11 01:35:54;;;;;;;7.55;1.85;;;;;;;1.47;60.90;98891.38;10447215;28;20132;-65
2023/03/11 01:40:56;;;;;;;9.13;3.05;;;;;;;1.49;60.79;98891.28;10430739;28;20049;-64
2023/03/11 01:46:00;;;;;;;10.25;3.38;;;;;;;1.56;60.85;98892.75;10430884;28;20056;-64
2023/03/11 01:51:03;;;;;;;10.43;2.08;;;;;;;1.63;60.76;98904.47;10430677;28;20076;-64
2023/03/11 01:56:05;;;;;;;8.48;2.50;;;;;;;1.60;60.53;98904.59;10429562;28;20075;-64
2023/03/11 02:01:07;;;;;;;7.30;2.53;;;;;;;1.57;60.66;98915.88;10434497;28;20401;-64
2023/03/11 02:06:13;;;;;;;5.95;1.65;;;;;;;1.70;60.39;98911.06;10430678;28;20489;-64
2023/03/11 02:11:19;;;;;;;10.10;2.40;;;;;;;1.66;59.96;98924.97;10413331;28;20627;-64
2023/03/11 02:16:21;;;;;;;6.45;1.80;;;;;;;1.71;59.86;98917.88;10429495;28;20057;-65
2023/03/11 02:21:31;;;;;;;9.50;2.85;;;;;;;1.62;59.91;98923.41;10432149;28;20053;-64
2023/03/11 02:27:04;;;;;;;11.27;3.20;;;;;;;1.36;60.39;98921.84;10412944;28;20080;-65
2023/03/11 02:32:08;;;;;;;8.63;2.58;;;;;;;1.47;60.75;98924.84;10429125;28;20049;-64
2023/03/11 02:37:12;;;;;;;7.32;2.40;;;;;;;1.25;61.01;98936.88;10430311;28;20045;-64
2023/03/11 02:42:25;;;;;;;7.65;2.10;;;;;;;1.44;60.34;98940.44;10429665;28;20049;-64
2023/03/11 02:47:27;;;;;;;5.40;2.25;;;;;;;1.52;60.14;98941.00;10436932;28;20514;-64
2023/03/11 02:52:32;;;;;;;5.28;1.92;;;;;;;1.57;59.74;98954.50;10428712;28;20044;-62
2023/03/11 02:57:34;;;;;;;6.38;2.08;;;;;;;1.57;59.90;98951.94;10432477;28;20131;-63
2023/03/11 03:02:36;;;;;;;6.50;2.30;;;;;;;1.67;59.66;98960.13;10436988;28;20574;-63
2023/03/11 03:07:38;;;;;;;14.80;2.63;;;;;;;1.73;59.23;98962.47;10435660;28;20381;-63
2023/03/11 03:12:40;;;;;;;9.20;2.30;;;;;;;1.70;59.58;98968.59;10434981;28;21338;-64
2023/03/11 03:17:43;;;;;;;12.95;2.53;;;;;;;1.79;59.78;98973.38;10436625;28;20053;-65
2023/03/11 03:22:45;;;;;;;8.30;2.55;;;;;;;1.74;59.47;98979.63;10438152;28;20531;-65
2023/03/11 03:27:49;;;;;;;7.78;2.38;;;;;;;1.73;59.56;98976.22;10434396;28;20049;-64
2023/03/11 03:32:51;;;;;;;8.70;2.20;;;;;;;1.74;59.47;98987.38;10434638;28;20048;-65
2023/03/11 03:37:54;;;;;;;7.97;2.30;;;;;;;1.74;59.43;98997.69;10435839;28;20468;-64
2023/03/11 03:42:56;;;;;;;11.77;2.50;;;;;;;1.73;59.35;98990.81;10436371;28;20355;-65
2023/03/11 03:47:58;;;;;;;10.27;2.33;;;;;;;1.64;59.54;98993.78;10436273;28;20041;-65
2023/03/11 03:53:01;;;;;;;10.10;2.50;;;;;;;1.64;59.76;99001.50;10435469;28;20080;-64
2023/03/11 03:58:03;;;;;;;12.32;2.92;;;;;;;1.72;59.17;99004.63;10435266;28;20132;-65
2023/03/11 04:03:05;;;;;;;9.10;2.58;;;;;;;1.74;59.54;99014.00;10432508;28;20140;-64
2023/03/11 04:08:08;;;;;;;8.63;2.33;;;;;;;1.69;59.96;99017.63;10428837;28;20704;-65
2023/03/11 04:13:10;;;;;;;10.75;2.50;;;;;;;1.81;59.59;99022.28;10426187;28;20103;-64
2023/03/11 04:18:12;;;;;;;9.88;2.50;;;;;;;1.77;59.37;99023.31;10426832;28;20408;-64
2023/03/11 04:23:15;;;;;;;10.13;2.40;;;;;;;1.79;59.30;99021.53;10428095;28;20049;-65
2023/03/11 04:28:18;;;;;;;9.00;2.20;;;;;;;1.68;59.16;99023.69;10428453;28;20145;-64
2023/03/11 04:33:20;;;;;;;6.20;2.28;;;;;;;1.48;59.50;99028.75;10429018;28;20530;-65
2023/03/11 04:38:23;;;;;;;12.15;2.40;;;;;;;1.29;59.47;99029.44;10425476;28;20049;-64
2023/03/11 04:43:26;;;;;;;8.48;2.65;;;;;;;1.28;59.38;99030.31;10427504;28;20558;-64
2023/03/11 04:48:28;;;;;;;8.82;2.50;;;;;;;1.28;59.47;99045.78;10425409;28;20080;-65
2023/03/11 04:53:30;;;;;;;11.50;2.80;;;;;;;1.16;59.45;99035.91;10426566;28;20045;-65
2023/03/11 04:58:33;;;;;;;11.85;3.00;;;;;;;1.01;59.43;99044.22;10426227;28;20037;-64
2023/03/11 05:03:35;;;;;;;15.73;3.58;;;;;;;0.90;59.30;99051.44;10413162;28;20135;-65
2023/03/11 05:08:37;;;;;;;13.15;2.88;;;;;;;0.80;59.58;99060.38;10426779;28;20055;-64
2023/03/11 05:13:40;;;;;;;15.80;2.88;;;;;;;0.65;59.54;99066.03;10427364;28;20125;-65
2023/03/11 05:18:42;;;;;;;9.68;2.65;;;;;;;0.53;59.54;99072.44;10425924;28;20281;-65
2023/03/11 05:23:44;;;;;;;8.38;2.40;;;;;;;0.50;60.13;99079.44;10428191;28;20049;-65
2023/03/11 05:28:47;;;;;;;11.95;2.90;;;;;;;0.43;59.66;99081.34;10426295;28;20142;-64
2023/03/11 05:33:49;;;;;;;9.73;2.58;;;;;;;0.44;60.03;99095.88;10431168;28;20060;-65
2023/03/11 05:38:52;;;;;;;15.95;2.65;;;;;;;0.39;59.66;99100.34;10433422;28;20044;-64
2023/03/11 05:43:53;;;;;;;10.30;2.38;;;;;;;0.36;59.78;99094.47;10435429;28;20040;-64
2023/03/11 05:48:55;;;;;;;12.77;2.42;;;;;;;0.31;59.57;99111.75;10457175;28;20056;-64
2023/03/11 05:53:57;;;;;;;10.23;2.30;;;;;;;0.29;59.62;99110.97;10432251;28;20126;-64
2023/03/11 05:58:59;;;;;;;7.00;1.95;;;;;;;0.33;59.67;99109.97;10432142;28;20049;-65
2023/03/11 06:04:00;;;;;;;10.95;2.22;;;;;;;0.26;59.10;99119.59;10432137;28;20045;-65
2023/03/11 06:09:02;;;;;;;8.15;2.28;;;;;;;0.28;59.35;99122.16;10431189;28;20041;-65
2023/03/11 06:14:04;;;;;;;8.25;2.03;;;;;;;0.29;58.98;99131.53;10433478;28;20449;-63
2023/03/11 06:19:06;;;;;;;9.18;2.20;;;;;;;0.36;59.37;99130.47;10437020;28;20052;-65
2023/03/11 06:24:07;;;;;;;9.32;2.00;;;;;;;0.37;59.03;99142.44;10432079;28;20056;-65
2023/03/11 06:29:13;;;;;;;9.55;2.28;;;;;;;0.48;58.87;99151.47;10430970;28;20449;-65
2023/03/11 06:34:15;;;;;;;10.23;2.35;;;;;;;0.42;59.23;99161.13;10431208;28;20055;-64
2023/03/11 06:39:17;;;;;;;16.15;2.55;;;;;;;0.45;58.65;99168.75;10430759;28;20052;-65
2023/03/11 06:44:18;;;;;;;14.05;2.67;;;;;;;0.57;58.47;99175.22;10445277;28;20594;-65
2023/03/11 06:49:20;;;;;;;11.00;2.22;;;;;;;0.67;58.88;99180.03;10430822;28;21471;-65
2023/03/11 06:54:22;;;;;;;8.57;2.45;;;;;;;0.73;58.48;99185.00;10428903;28;20088;-65
2023/03/11 06:59:23;;;;;;;7.13;2.03;;;;;;;0.73;57.92;99192.72;10429767;28;20397;-65
2023/03/11 07:04:25;;;;;;;19.05;2.90;;;;;;;0.87;57.87;99200.00;10428619;28;20697;-65
2023/03/11 07:09:28;;;;;;;12.63;2.65;;;;;;;0.95;57.59;99216.06;10428082;28;20120;-65
2023/03/11 07:14:29;;;;;;;19.55;2.58;;;;;;;1.16;57.42;99223.91;10432149;28;20063;-65
2023/03/11 07:19:31;;;;;;;9.57;2.20;;;;;;;1.55;56.93;99237.19;10449791;28;20063;-64
2023/03/11 07:24:33;;;;;;;9.05;2.67;;;;;;;2.14;55.81;99235.91;10428915;28;20068;-65
2023/03/11 07:29:34;;;;;;;10.52;2.85;;;;;;;2.09;55.14;99236.97;10429737;28;20543;-65
2023/03/11 07:34:36;;;;;;;10.45;2.38;;;;;;;2.08;54.96;99248.19;10428042;28;20416;-63
2023/03/11 07:39:38;;;;;;;10.15;2.53;;;;;;;2.22;54.32;99246.78;10429548;28;20704;-65
2023/03/11 07:44:40;;;;;;;13.90;2.97;;;;;;;2.20;54.91;99258.91;10425625;28;20044;-65
2023/03/11 07:49:41;;;;;;;8.90;2.10;;;;;;;2.00;55.12;99273.41;10424871;28;20045;-65
2023/03/11 07:54:44;;;;;;;12.20;2.58;;;;;;;1.92;54.72;99293.47;10425473;28;20049;-65
2023/03/11 07:59:45;;;;;;;13.30;2.60;;;;;;;2.06;53.90;99294.66;10423962;28;20063;-65
2023/03/11 08:04:47;;;;;;;10.77;3.13;;;;;;;2.29;54.11;99296.41;10437574;28;20208;-65
2023/03/11 08:09:49;;;;;;;9.88;2.40;;;;;;;2.59;53.56;99304.75;10425226;28;20052;-65
2023/03/11 08:14:50;;;;;;;14.38;2.63;;;;;;;2.61;53.45;99316.72;10417950;28;20179;-65
2023/03/11 08:19:52;;;;;;;11.13;2.70;;;;;;;2.58;52.95;99316.00;10421651;28;20520;-63
2023/03/11 08:24:55;;;;;;;10.73;3.15;;;;;;;2.76;52.82;99321.31;10420962;28;20405;-65
2023/03/11 08:29:57;;;;;;;12.25;2.50;;;;;;;2.79;52.34;99321.19;10425967;28;20076;-64
2023/03/11 08:35:00;;;;;;;9.23;2.58;;;;;;;3.30;52.04;99330.38;10422911;28;20345;-65
2023/03/11 08:40:03;;;;;;;9.38;2.95;;;;;;;3.37;51.00;99330.09;10422261;28;20041;-69
2023/03/11 08:45:05;;;;;;;8.38;2.70;;;;;;;3.54;50.41;99334.56;10422320;28;20392;-69
2023/03/11 08:50:12;;;;;;;10.02;2.80;;;;;;;3.94;48.95;99332.06;10409213;28;20041;-69
2023/03/11 08:55:17;;;;;;;9.85;2.45;;;;;;;4.10;48.00;99333.09;10421099;28;20312;-69
2023/03/11 09:00:19;;;;;;;12.40;2.67;;;;;;;4.31;48.34;99336.50;10421843;28;20053;-68
2023/03/11 09:05:21;;;;;;;9.27;2.65;;;;;;;4.81;47.61;99332.47;10422446;28;20042;-69
2023/03/11 09:10:23;;;;;;;10.50;2.35;;;;;;;5.06;46.56;99339.97;10429700;28;20539;-68
2023/03/11 09:15:25;;;;;;;7.38;1.90;;;;;;;4.78;45.81;99335.19;10429028;28;20412;-66
2023/03/11 09:20:28;;;;;;;10.50;2.35;;;;;;;4.44;46.78;99342.78;10427543;28;20397;-68
2023/03/11 09:25:31;;;;;;;8.23;2.20;;;;;;;4.98;45.66;99342.91;10430079;28;20460;-68
2023/03/11 09:30:33;;;;;;;8.60;2.10;;;;;;;4.64;44.80;99343.59;10435507;28;20041;-69
2023/03/11 09:35:37;;;;;;;8.10;2.05;;;;;;;5.08;44.20;99344.16;10437109;28;20153;-68
2023/03/11 09:41:18;;;;;;;8.48;2.17;;;;;;;4.51;41.89;99350.25;10439084;28;20045;-69
2023/03/11 09:46:29;;;;;;;6.05;2.03;;;;;;;4.15;45.43;99349.25;10405428;28;20052;-69
2023/03/11 09:51:42;;;;;;;9.80;2.00;;;;;;;4.23;42.75;99344.56;10433706;28;20052;-69
2023/03/11 09:56:44;;;;;;;7.43;2.15;;;;;;;4.45;43.83;99347.09;10436003;28;20410;-69
2023/03/11 10:01:49;;;;;;;8.38;2.10;;;;;;;4.29;43.84;99344.31;10432378;28;20059;-68
2023/03/11 10:06:51;;;;;;;8.00;2.10;;;;;;;4.10;43.83;99351.19;10434599;28;20126;-69
2023/03/11 10:12:14;;;;;;;8.15;1.95;;;;;;;4.07;43.87;99358.25;10432928;28;20391;-68
2023/03/11 10:17:53;;;;;;;7.07;1.92;;;;;;;3.85;42.27;99369.50;10429774;28;20425;-69
2023/03/11 10:23:07;;;;;;;6.53;1.80;;;;;;;4.10;42.49;99363.28;10430756;28;20462;-69
2023/03/11 10:28:16;;;;;;;7.45;1.80;;;;;;;4.47;43.05;99363.38;10428243;28;20049;-69
2023/03/11 10:33:25;;;;;;;4.35;1.48;;;;;;;4.65;42.14;99357.41;10432501;28;20175;-68
2023/03/11 10:38:45;;;;;;;5.90;1.50;;;;;;;5.04;40.21;99359.94;10444683;28;20055;-68
2023/03/11 10:44:12;;;;;;;5.85;1.42;;;;;;;5.23;39.17;99371.09;10442683;28;20080;-69
2023/03/11 10:49:16;;;;;;;5.40;1.40;;;;;;;5.20;40.70;99379.03;10449490;28;20041;-69
2023/03/11 10:54:45;;;;;;;4.88;1.30;;;;;;;5.40;38.65;99384.97;10430915;28;20135;-68
2023/03/11 10:59:50;;;;;;;4.75;1.48;;;;;;;5.43;39.70;99394.38;10429685;28;20053;-69
2023/03/11 11:05:27;;;;;;;7.30;1.63;;;;;;;5.49;37.54;99381.09;10428047;28;20394;-69
2023/03/11 11:10:31;;;;;;;3.88;1.35;;;;;;;4.82;38.12;99391.13;10423353;28;20504;-69
2023/03/11 11:15:41;;;;;;;5.40;1.60;;;;;;;5.18;38.21;99386.03;10429539;28;20628;-69
2023/03/11 11:21:36;;;;;;;3.23;1.40;;;;;;;6.25;37.99;99375.56;10440827;28;20501;-69
2023/03/11 11:26:37;;;;;;;6.38;1.98;;;;;;;6.45;37.17;99384.97;10436796;28;20354;-69
2023/03/11 11:31:42;;;;;;;4.90;1.30;;;;;;;6.22;37.52;99394.75;10427749;28;20049;-69
2023/03/11 11:36:44;;;;;;;4.93;1.40;;;;;;;6.17;36.91;99401.91;10420913;28;20060;-69
2023/03/11 11:41:48;;;;;;;3.58;1.40;;;;;;;6.24;36.66;99382.53;10469634;28;20052;-69
2023/03/11 11:46:58;;;;;;;5.03;1.80;;;;;;;6.61;36.29;99354.66;10468850;28;20049;-69
2023/03/11 11:52:18;;;;;;;6.10;1.70;;;;;;;6.65;34.99;99345.78;10455809;28;20045;-69
2023/03/11 11:57:22;;;;;;;5.35;1.50;;;;;;;7.00;35.90;99340.38;10446626;28;20078;-68
2023/03/11 12:02:42;;;;;;;5.40;1.60;;;;;;;6.94;34.40;99351.09;10459036;28;20056;-69
2023/03/11 12:08:05;;;;;;;4.78;1.50;;;;;;;6.29;32.64;99351.13;10428183;28;20155;-69
2023/03/11 12:13:45;;;;;;;4.78;1.55;;;;;;;6.41;34.81;99341.88;10427303;28;20459;-68
2023/03/11 12:19:00;;;;;;;6.00;1.60;;;;;;;6.57;33.72;99343.56;10468912;28;20048;-68
2023/03/11 12:24:01;;;;;;;8.25;1.80;;;;;;;7.06;36.30;99349.63;10431864;28;20037;-68
2023/03/11 12:29:25;;;;;;;5.72;1.60;;;;;;;7.28;34.36;99344.91;10428229;28;20056;-69
2023/03/11 12:34:29;;;;;;;6.25;1.63;;;;;;;7.07;35.06;99356.47;10426709;28;20056;-68
2023/03/11 12:39:33;;;;;;;4.10;1.48;;;;;;;6.48;35.98;99361.41;10436662;28;20469;-68
2023/03/11 12:44:39;;;;;;;6.72;1.58;;;;;;;6.29;36.46;99354.56;10431193;28;20053;-69
2023/03/11 12:49:44;;;;;;;4.22;1.40;;;;;;;6.12;36.31;99358.94;10428184;28;20048;-69
2023/03/11 12:54:48;;;;;;;4.63;1.73;;;;;;;6.34;35.87;99352.59;10430063;28;20673;-69
2023/03/11 13:00:21;;;;;;;8.63;1.98;;;;;;;6.14;36.85;99363.09;10433635;28;20044;-69
2023/03/11 13:05:54;;;;;;;5.20;1.50;;;;;;;6.43;34.44;99360.81;10432619;28;20049;-69
2023/03/11 13:10:57;;;;;;;6.82;1.70;;;;;;;6.69;36.10;99361.16;10430862;28;20067;-69
2023/03/11 13:16:11;;;;;;;7.20;1.52;;;;;;;6.59;34.12;99365.16;10432083;28;20053;-68
2023/03/11 13:21:31;;;;;;;5.25;1.70;;;;;;;7.09;34.68;99370.22;10429056;28;20048;-68
2023/03/11 13:26:41;;;;;;;6.22;1.50;;;;;;;7.16;35.55;99369.00;10448136;28;20045;-68
2023/03/11 13:31:55;;;;;;;3.92;1.50;;;;;;;6.78;35.21;99376.22;10437002;28;20041;-68
2023/03/11 13:37:18;;;;;;;7.65;1.83;;;;;;;6.46;35.07;99382.28;10433784;28;20099;-69
2023/03/11 13:42:41;;;;;;;4.68;1.48;;;;;;;6.33;34.64;99370.81;10443963;28;20397;-68
2023/03/11 13:47:48;;;;;;;8.57;1.67;;;;;;;6.54;35.94;99377.53;10432875;28;20538;-68
2023/03/11 13:52:52;;;;;;;6.57;1.50;;;;;;;6.50;34.82;99377.75;10432433;28;20053;-67
2023/03/11 13:57:56;;;;;;;6.97;1.70;;;;;;;6.39;34.90;99374.91;10433631;28;20059;-68
2023/03/11 14:03:02;;;;;;;4.53;1.50;;;;;;;6.48;35.02;99382.19;10430738;28;20072;-67
2023/03/11 14:08:26;;;;;;;5.22;1.58;;;;;;;6.14;33.99;99370.88;10432000;28;20421;-68
2023/03/11 14:13:30;;;;;;;4.63;1.60;;;;;;;6.37;34.43;99361.16;10455423;28;20053;-67
2023/03/11 14:18:33;;;;;;;6.70;1.50;;;;;;;6.82;35.18;99371.69;10434563;28;20221;-67
2023/03/11 14:23:43;;;;;;;5.38;1.58;;;;;;;6.94;34.78;99371.03;10453095;28;20515;-67
2023/03/11 14:28:49;;;;;;;5.70;1.65;;;;;;;6.87;35.06;99370.56;10453269;28;20496;-67
2023/03/11 14:34:14;;;;;;;4.18;1.50;;;;;;;6.50;34.03;99377.75;10450849;28;20072;-67
2023/03/11 14:39:24;;;;;;;4.28;1.30;;;;;;;6.70;35.94;99377.56;10442662;28;20052;-67
2023/03/11 14:44:28;;;;;;;7.60;1.70;;;;;;;6.63;35.43;99378.81;10440081;28;20048;-67
2023/03/11 14:49:30;;;;;;;5.00;1.50;;;;;;;6.46;35.68;99381.44;10447400;28;20052;-67
2023/03/11 14:54:34;;;;;;;5.90;1.50;;;;;;;6.76;34.92;99372.03;10428030;28;20049;-67
2023/03/11 14:59:38;;;;;;;5.43;1.58;;;;;;;6.57;35.10;99368.75;10454200;28;20064;-67
2023/03/11 15:04:43;;;;;;;6.45;1.70;;;;;;;6.14;35.12;99373.50;10430130;28;20515;-67
2023/03/11 15:09:45;;;;;;;4.40;1.40;;;;;;;5.82;35.32;99389.81;10451047;28;20056;-67
2023/03/11 15:14:50;;;;;;;4.18;1.40;;;;;;;5.86;34.83;99383.56;10443530;28;20053;-68
2023/03/11 15:19:51;;;;;;;7.22;1.75;;;;;;;5.71;35.44;99381.75;10454609;28;20087;-67
2023/03/11 15:24:58;;;;;;;4.95;1.52;;;;;;;5.58;36.50;99388.41;10445707;28;20511;-67
2023/03/11 15:30:03;;;;;;;4.18;1.48;;;;;;;5.70;35.96;99390.41;10445591;28;20071;-67
2023/03/11 15:35:09;;;;;;;5.75;1.73;;;;;;;5.93;35.50;99395.34;10449377;28;20216;-67
2023/03/11 15:40:22;;;;;;;7.05;1.63;;;;;;;6.01;34.69;99403.59;10458445;28;20595;-67
2023/03/11 15:45:30;;;;;;;5.53;1.55;;;;;;;6.10;35.74;99407.50;10437048;28;20049;-67
2023/03/11 15:50:32;;;;;;;5.20;1.70;;;;;;;6.24;34.95;99390.31;10435322;28;20045;-67
2023/03/11 15:55:55;;;;;;;6.07;1.50;;;;;;;6.18;36.39;99401.00;10427001;28;20172;-67
2023/03/11 16:01:08;;;;;;;4.78;1.45;;;;;;;5.99;35.07;99402.81;10435670;28;20346;-68
2023/03/11 16:06:10;;;;;;;5.65;1.88;;;;;;;5.91;35.39;99411.91;10428459;28;20063;-67
2023/03/11 16:11:12;;;;;;;4.00;1.50;;;;;;;5.88;35.45;99409.47;10428662;28;20135;-67
2023/03/11 16:16:16;;;;;;;4.43;1.60;;;;;;;5.72;35.50;99414.53;10425231;28;20583;-67
2023/03/11 16:21:20;;;;;;;7.28;1.75;;;;;;;5.82;36.69;99420.16;10450766;28;20686;-67
2023/03/11 16:26:22;;;;;;;5.55;1.88;;;;;;;5.81;35.82;99411.50;10424711;28;20052;-67
2023/03/11 16:31:23;;;;;;;6.90;1.60;;;;;;;5.78;36.54;99411.66;10432066;28;20049;-67
2023/03/11 16:36:25;;;;;;;8.80;1.60;;;;;;;5.62;35.91;99415.03;10425625;28;20084;-67
2023/03/11 16:41:27;;;;;;;17.95;2.33;;;;;;;5.41;37.48;99424.72;10443187;28;20579;-69
2023/03/11 16:46:29;;;;;;;6.03;1.77;;;;;;;5.30;37.65;99425.19;10424541;28;20039;-69
2023/03/11 16:51:31;;;;;;;8.93;1.80;;;;;;;5.26;37.51;99434.03;10425423;28;20045;-69
2023/03/11 16:56:34;;;;;;;8.73;2.83;;;;;;;5.14;37.96;99432.00;10425573;28;20092;-69
2023/03/11 17:01:37;;;;;;;5.90;2.00;;;;;;;4.95;38.89;99438.06;10423853;28;20049;-69
2023/03/11 17:06:39;;;;;;;4.55;1.67;;;;;;;4.90;38.32;99433.13;10429314;28;20139;-69
2023/03/11 17:11:41;;;;;;;6.82;1.60;;;;;;;4.81;38.83;99435.25;10423392;28;20634;-69
2023/03/11 17:16:44;;;;;;;6.20;1.63;;;;;;;4.64;39.61;99442.00;10427438;28;20168;-69
2023/03/11 17:21:46;;;;;;;7.80;1.75;;;;;;;4.43;39.84;99439.50;10421169;28;20055;-69
2023/03/11 17:26:47;;;;;;;7.00;1.60;;;;;;;4.19;40.38;99458.66;10422455;28;20111;-69
2023/03/11 17:31:49;;;;;;;4.07;1.52;;;;;;;3.95;40.12;99467.41;10445168;28;20041;-69
2023/03/11 17:36:51;;;;;;;5.68;2.00;;;;;;;3.77;41.60;99468.94;10432688;28;20049;-69
2023/03/11 17:41:52;;;;;;;5.40;1.90;;;;;;;3.60;43.00;99484.31;10449917;28;20397;-69
2023/03/11 17:46:54;;;;;;;9.93;2.97;;;;;;;3.46;43.00;99483.97;10431962;28;20052;-69
2023/03/11 17:51:56;;;;;;;6.53;1.90;;;;;;;3.22;43.38;99495.22;10434582;28;20645;-69
2023/03/11 17:56:57;;;;;;;9.18;2.30;;;;;;;3.14;43.89;99507.59;10432888;28;20496;-64
2023/03/11 18:01:59;;;;;;;5.45;2.17;;;;;;;3.00;44.77;99510.66;10414532;28;20064;-64
2023/03/11 18:07:01;;;;;;;17.08;3.13;;;;;;;2.86;45.13;99521.50;10459535;28;20401;-64
2023/03/11 18:12:05;;;;;;;12.82;3.20;;;;;;;2.75;46.13;99520.16;10439166;28;20045;-64
2023/03/11 18:17:07;;;;;;;6.50;2.80;;;;;;;2.61;46.76;99519.78;10429887;28;20327;-64
2023/03/11 18:22:09;;;;;;;12.18;3.03;;;;;;;2.46;47.29;99521.16;10439657;28;20535;-64
2023/03/11 18:27:11;;;;;;;5.13;2.10;;;;;;;2.37;47.58;99528.38;10438207;28;20045;-65
2023/03/11 18:32:13;;;;;;;4.55;1.90;;;;;;;2.27;47.49;99526.97;10429300;28;20048;-64
2023/03/11 18:37:15;;;;;;;6.65;2.10;;;;;;;1.97;47.78;99533.97;10450345;28;20053;-64
2023/03/11 18:42:16;;;;;;;6.10;2.20;;;;;;;1.85;48.32;99532.59;10429177;28;20064;-64
2023/03/11 18:47:18;;;;;;;11.48;3.60;;;;;;;1.71;48.67;99536.47;10416569;28;20072;-65
2023/03/11 18:52:20;;;;;;;8.43;4.15;;;;;;;1.56;49.21;99535.22;10436702;28;20071;-64
2023/03/11 18:57:21;;;;;;;11.60;5.78;;;;;;;1.44;49.22;99532.16;10429832;28;20071;-64
2023/03/11 19:02:24;;;;;;;6.60;3.50;;;;;;;1.18;49.83;99533.75;10429405;28;20060;-65
2023/03/11 19:07:29;;;;;;;7.53;3.47;;;;;;;1.06;49.82;99531.50;10455994;28;20048;-64
2023/03/11 19:12:33;;;;;;;11.43;5.07;;;;;;;1.08;50.46;99534.03;10456309;28;20075;-64
2023/03/11 19:17:35;;;;;;;8.60;3.72;;;;;;;1.13;50.67;99545.06;10441422;28;20760;-63
2023/03/11 19:22:37;;;;;;;9.27;4.50;;;;;;;1.10;51.24;99551.16;10434306;28;20052;-64
2023/03/11 19:27:39;;;;;;;21.65;8.05;;;;;;;0.98;51.39;99546.34;10411159;28;20049;-63
2023/03/11 19:32:40;;;;;;;13.85;7.47;;;;;;;0.91;52.46;99552.50;10433899;28;20044;-63
2023/03/11 19:37:42;;;;;;;14.65;6.15;;;;;;;0.90;52.03;99561.16;10434291;28;20049;-63
2023/03/11 19:42:44;;;;;;;8.15;4.28;;;;;;;0.82;52.20;99563.06;10428565;28;20417;-63
2023/03/11 19:47:49;;;;;;;8.85;4.38;;;;;;;0.72;52.41;99555.63;10426779;28;20472;-64
2023/03/11 19:52:51;;;;;;;7.57;4.10;;;;;;;0.60;52.76;99556.78;10440617;28;20824;-64
2023/03/11 19:57:53;;;;;;;8.35;3.30;;;;;;;0.46;52.94;99567.41;10434292;28;20151;-63
2023/03/11 20:02:55;;;;;;;7.97;3.17;;;;;;;0.41;53.24;99571.84;10435863;28;20063;-63
2023/03/11 20:07:57;;;;;;;5.72;2.88;;;;;;;0.44;53.37;99594.09;10448630;28;20277;-65
2023/03/11 20:13:01;;;;;;;6.93;3.33;;;;;;;0.44;53.64;99604.38;10433170;28;20300;-65
2023/03/11 20:18:05;;;;;;;7.70;3.13;;;;;;;0.33;54.01;99596.06;10442785;28;20504;-64
2023/03/11 20:23:06;;;;;;;8.20;3.35;;;;;;;0.19;54.25;99598.09;10414126;28;20130;-64
2023/03/11 20:28:08;;;;;;;6.32;3.42;;;;;;;0.22;54.72;99600.63;10432810;28;20067;-64
2023/03/11 20:33:10;;;;;;;10.85;3.58;;;;;;;0.21;54.41;99599.78;10429585;28;20073;-64
2023/03/11 20:38:12;;;;;;;7.95;4.20;;;;;;;0.16;54.58;99605.91;10441570;28;20508;-63
2023/03/11 20:43:13;;;;;;;9.23;4.22;;;;;;;0.12;55.10;99610.25;10432455;28;20049;-63
2023/03/11 20:48:15;;;;;;;11.88;4.88;;;;;;;0.09;55.27;99615.47;10426799;28;20386;-64
2023/03/11 20:53:17;;;;;;;9.98;4.40;;;;;;;0.05;55.37;99613.00;10450712;28;20049;-63
2023/03/11 20:58:18;;;;;;;8.85;4.10;;;;;;;0.02;55.88;99619.06;10455678;28;20059;-64
2023/03/11 21:03:20;;;;;;;13.45;3.88;;;;;;;-0.00;55.81;99617.38;10426780;28;20218;-64
2023/03/11 21:08:22;;;;;;;6.90;3.60;;;;;;;-0.04;55.67;99618.34;10436456;28;20084;-64
2023/03/11 21:13:24;;;;;;;13.10;4.18;;;;;;;-0.07;55.72;99616.69;10433353;28;20486;-64
2023/03/11 21:18:25;;;;;;;9.38;5.00;;;;;;;-0.08;56.03;99614.13;10442723;28;20056;-64
2023/03/11 21:23:27;;;;;;;12.43;4.20;;;;;;;-0.13;56.46;99615.97;10473229;28;20059;-63
2023/03/11 21:28:30;;;;;;;21.88;4.63;;;;;;;-0.20;56.29;99611.84;10438687;28;20636;-63
2023/03/11 21:33:32;;;;;;;12.70;4.45;;;;;;;-0.28;56.52;99616.28;10471964;28;20476;-63
2023/03/11 21:38:34;;;;;;;10.00;4.13;;;;;;;-0.38;56.86;99624.22;10446297;28;20489;-63
2023/03/11 21:43:37;;;;;;;11.18;4.30;;;;;;;-0.43;57.08;99622.59;10470543;28;20118;-63
2023/03/11 21:48:39;;;;;;;8.10;4.00;;;;;;;-0.48;57.22;99622.72;10433570;28;20088;-62
2023/03/11 21:53:41;;;;;;;9.30;4.20;;;;;;;-0.64;57.00;99616.19;10464726;28;20051;-63
2023/03/11 21:58:43;;;;;;;8.98;3.88;;;;;;;-0.83;57.48;99625.09;10434232;28;20053;-63
2023/03/11 22:03:46;;;;;;;6.93;4.10;;;;;;;-0.81;57.87;99623.34;10472995;28;20083;-63
2023/03/11 22:08:48;;;;;;;11.02;5.35;;;;;;;-0.74;57.84;99622.34;10454788;28;20045;-62
2023/03/11 22:13:52;;;;;;;9.23;3.92;;;;;;;-0.77;58.09;99632.69;10447099;28;20101;-63
2023/03/11 22:18:54;;;;;;;11.48;4.05;;;;;;;-0.74;58.14;99624.91;10437184;28;20060;-63
2023/03/11 22:23:56;;;;;;;6.65;3.42;;;;;;;-0.66;58.17;99622.22;10463422;28;20128;-63
2023/03/11 22:28:58;;;;;;;8.60;3.63;;;;;;;-0.61;58.38;99621.25;10429559;28;20540;-63
2023/03/11 22:33:59;;;;;;;7.28;3.88;;;;;;;-0.62;58.10;99623.84;10429304;28;20049;-63
2023/03/11 22:39:03;;;;;;;10.73;3.92;;;;;;;-0.68;58.40;99629.09;10465635;28;20074;-63
2023/03/11 22:44:04;;;;;;;11.98;4.18;;;;;;;-0.56;58.30;99628.88;10470754;28;20562;-64
2023/03/11 22:49:06;;;;;;;11.65;4.22;;;;;;;-0.54;58.20;99635.69;10453663;28;20053;-63
2023/03/11 22:54:08;;;;;;;9.25;4.40;;;;;;;-0.54;58.17;99642.53;10447909;28;20354;-63
2023/03/11 22:59:09;;;;;;;11.23;4.35;;;;;;;-0.62;58.21;99636.69;10433947;28;20060;-63
2023/03/11 23:04:11;;;;;;;10.32;4.50;;;;;;;-0.78;58.72;99630.97;10469751;28;20079;-66
2023/03/11 23:09:13;;;;;;;10.30;4.30;;;;;;;-0.80;58.91;99635.31;10439709;28;20044;-63
2023/03/11 23:14:15;;;;;;;9.52;3.78;;;;;;;-0.78;58.77;99630.97;10435995;28;20564;-63
2023/03/11 23:19:17;;;;;;;12.82;4.72;;;;;;;-0.79;58.78;99641.28;10428140;28;20462;-63
2023/03/11 23:24:18;;;;;;;7.75;3.67;;;;;;;-0.80;58.57;99634.47;10448266;28;20055;-63
2023/03/11 23:29:20;;;;;;;8.07;4.10;;;;;;;-0.82;58.95;99626.78;10448077;28;20052;-64
2023/03/11 23:34:22;;;;;;;9.45;4.07;;;;;;;-0.74;58.83;99630.06;10468747;28;20389;-63
2023/03/11 23:39:23;;;;;;;7.85;4.20;;;;;;;-0.68;58.59;99629.97;10467976;28;20396;-64
2023/03/11 23:44:25;;;;;;;10.30;4.28;;;;;;;-0.80;58.79;99643.00;10454711;28;20194;-64
2023/03/11 23:49:27;;;;;;;7.55;4.10;;;;;;;-0.70;58.94;99639.41;10446845;28;20052;-64